.
WxDataArchive / Data Records for 2009-04-15
2009-04-14 April 2009 2009-04-16

Data Records for Wednesday, 15 April 2009

Time	Temp	Chill	HIndex	Humid	Dewpt	 Wind 	HiWind	WindDir	Rain 	Barom 
-----	----	-----	------	-----	-----	------	------	-------	-----	----- 
00:00	39.2	39.2	39.2	94	37.6	0	2	338	0.00	29.942 
00:05	39.2	39.2	39.2	94	37.6	0	2	338	0.00	29.942 
00:10	39.2	39.2	39.2	94	37.6	0	2	338	0.00	29.942 
00:15	39.2	39.2	39.2	94	37.6	0	3	292	0.00	29.942 
00:20	39.2	39.2	39.2	94	37.6	0	4	22	0.00	29.942 
00:25	39.1	39.1	39.1	94	37.5	0	1	22	0.00	29.942 
00:30	39.1	39.1	39.1	94	37.5	0	1	22	0.00	29.943 
00:35	39.1	39.1	39.1	94	37.5	0	4	315	0.00	29.943 
00:40	39.1	39.1	39.1	94	37.5	0	2	315	0.00	29.943 
00:45	39.1	39.1	39.1	94	37.5	0	2	22	0.00	29.943 
00:50	38.9	38.9	38.9	94	37.3	0	3	22	0.00	29.943 
00:55	38.9	38.9	38.9	94	37.3	0	1	22	0.00	29.943 
01:00	38.9	38.9	38.9	94	37.3	1	3	22	0.00	29.943 
01:05	38.9	38.9	38.9	94	37.3	0	3	22	0.00	29.943 
01:10	38.9	38.9	38.9	94	37.3	1	4	22	0.00	29.943 
01:15	38.9	38.9	38.9	94	37.3	1	3	22	0.00	29.945 
01:20	38.8	38.8	38.8	94	37.2	0	2	0	0.00	29.945 
01:25	38.8	38.8	38.8	94	37.2	0	3	0	0.00	29.945 
01:30	38.8	38.8	38.8	94	37.2	1	3	45	0.00	29.946 
01:35	38.8	38.8	38.8	94	37.2	1	5	22	0.00	29.946 
01:40	38.8	38.8	38.8	94	37.2	0	1	22	0.00	29.946 
01:45	38.8	38.8	38.8	94	37.2	0	3	22	0.00	29.948 
01:50	38.8	38.8	38.8	94	37.2	1	3	270	0.00	29.948 
01:55	38.8	38.8	38.8	94	37.2	0	2	22	0.00	29.948 
02:00	38.8	38.8	38.8	94	37.2	0	3	22	0.00	29.952 
02:05	38.8	38.8	38.8	94	37.2	0	3	22	0.00	29.952 
02:10	38.6	38.6	38.6	94	37.0	1	4	270	0.00	29.952 
02:15	38.6	38.6	38.6	93	36.8	0	2	292	0.00	29.956 
02:20	38.6	38.6	38.6	93	36.8	1	2	292	0.00	29.956 
02:25	38.6	38.6	38.6	93	36.8	1	4	0	0.00	29.956 
02:30	38.6	38.6	38.6	93	36.8	0	3	0	0.00	29.956 
02:35	38.5	38.5	38.5	93	36.7	0	3	315	0.00	29.956 
02:40	38.5	38.5	38.5	93	36.7	0	2	112	0.00	29.956 
02:45	38.5	38.5	38.5	93	36.7	0	2	112	0.00	29.954 
02:50	38.5	38.5	38.5	93	36.7	1	3	45	0.00	29.954 
02:55	38.5	38.5	38.5	93	36.7	1	3	22	0.00	29.954 
03:00	38.5	38.5	38.5	93	36.7	0	1	0	0.00	29.954 
03:05	38.5	38.5	38.5	93	36.7	0	3	248	0.00	29.954 
03:10	38.5	38.5	38.5	93	36.7	1	3	22	0.00	29.954 
03:15	38.5	38.5	38.5	93	36.7	0	3	338	0.00	29.958 
03:20	38.5	38.5	38.5	93	36.7	0	2	338	0.00	29.958 
03:25	38.5	38.5	38.5	93	36.7	0	1	338	0.00	29.958 
03:30	38.5	38.5	38.5	93	36.7	0	3	338	0.00	29.960 
03:35	38.5	38.5	38.5	93	36.7	0	2	338	0.00	29.960 
03:40	38.3	38.3	38.3	93	36.5	0	1	338	0.00	29.960 
03:45	38.3	38.3	38.3	93	36.5	0	2	338	0.00	29.964 
03:50	38.3	38.3	38.3	93	36.5	0	3	315	0.00	29.964 
03:55	38.3	38.3	38.3	93	36.5	0	2	315	0.00	29.964 
04:00	38.3	38.3	38.3	93	36.5	0	2	315	0.00	29.972 
04:05	38.3	38.3	38.3	93	36.5	0	1	315	0.00	29.972 
04:10	38.3	38.3	38.3	93	36.5	0	2	315	0.00	29.972 
04:15	38.2	38.2	38.2	93	36.4	0	2	338	0.00	29.975 
04:20	38.2	38.2	38.2	93	36.4	0	4	315	0.00	29.975 
04:25	38.2	38.2	38.2	93	36.4	0	3	315	0.00	29.975 
04:30	38.2	38.2	38.2	94	36.6	1	2	315	0.00	29.978 
04:35	38.0	38.0	38.0	94	36.4	0	2	315	0.00	29.978 
04:40	38.0	38.0	38.0	94	36.4	0	3	0	0.00	29.978 
04:45	37.9	37.9	37.9	94	36.3	0	2	0	0.00	29.978 
04:50	37.9	37.9	37.9	94	36.3	0	2	338	0.00	29.978 
04:55	37.9	37.9	37.9	94	36.3	0	2	315	0.00	29.978 
05:00	37.9	37.9	37.9	94	36.3	0	3	292	0.00	29.981 
05:05	37.9	37.9	37.9	94	36.3	0	3	292	0.00	29.981 
05:10	37.9	37.9	37.9	94	36.3	0	2	292	0.00	29.981 
05:15	37.9	37.9	37.9	94	36.3	0	2	315	0.00	29.990 
05:20	37.9	37.9	37.9	94	36.3	1	3	315	0.00	29.990 
05:25	37.9	37.9	37.9	94	36.3	0	1	315	0.00	29.990 
05:30	37.9	37.9	37.9	94	36.3	1	3	292	0.00	29.993 
05:35	37.9	37.9	37.9	94	36.3	0	1	292	0.00	29.993 
05:40	37.9	37.9	37.9	94	36.3	0	2	315	0.00	29.993 
05:45	37.9	37.9	37.9	94	36.3	1	3	248	0.00	29.998 
05:50	37.9	37.9	37.9	94	36.3	1	3	248	0.00	29.998 
05:55	37.9	37.9	37.9	94	36.3	0	3	90	0.00	29.998 
06:00	37.9	37.9	37.9	94	36.3	0	2	90	0.00	29.998 
06:05	37.9	37.9	37.9	94	36.3	0	3	68	0.00	29.998 
06:10	38.0	38.0	38.0	94	36.4	1	3	315	0.00	29.998 
06:15	38.0	38.0	38.0	94	36.4	0	3	315	0.00	30.000 
06:20	38.0	38.0	38.0	94	36.4	0	4	315	0.00	30.000 
06:25	38.0	38.0	38.0	93	36.2	1	3	22	0.00	30.000 
06:30	38.2	38.2	38.2	93	36.4	1	3	22	0.00	30.005 
06:35	38.2	38.2	38.2	93	36.4	0	2	22	0.00	30.005 
06:40	38.2	38.2	38.2	93	36.4	1	4	292	0.00	30.005 
06:45	38.3	38.3	38.3	93	36.5	0	2	292	0.00	30.014 
06:50	38.3	38.3	38.3	93	36.5	0	2	292	0.00	30.014 
06:55	38.3	38.3	38.3	93	36.5	0	4	270	0.00	30.014 
07:00	38.3	38.3	38.3	93	36.5	0	1	270	0.00	30.020 
07:05	38.3	38.3	38.3	93	36.5	0	2	270	0.00	30.020 
07:10	38.5	38.5	38.5	93	36.7	0	2	338	0.00	30.020 
07:15	38.5	38.5	38.5	93	36.7	0	1	338	0.00	30.026 
07:20	38.6	38.6	38.6	93	36.8	0	2	338	0.00	30.026 
07:25	38.6	38.6	38.6	93	36.8	0	3	338	0.00	30.026 
07:30	38.6	38.6	38.6	93	36.8	0	2	248	0.00	30.039 
07:35	38.6	38.6	38.6	93	36.8	0	2	338	0.00	30.039 
07:40	38.8	38.8	38.8	93	37.0	0	4	338	0.00	30.039 
07:45	38.8	38.8	38.8	93	37.0	0	5	22	0.00	30.041 
07:50	38.8	38.8	38.8	94	37.2	0	1	22	0.00	30.041 
07:55	38.8	38.8	38.8	94	37.2	0	2	22	0.00	30.041 
08:00	38.8	38.8	38.8	94	37.2	0	2	0	0.00	30.044 
08:05	38.9	38.9	38.9	94	37.3	0	3	0	0.00	30.044 
08:10	38.9	38.9	38.9	94	37.3	0	3	0	0.00	30.044 
08:15	39.1	39.1	39.1	94	37.5	0	3	270	0.00	30.049 
08:20	39.1	39.1	39.1	94	37.5	0	2	270	0.00	30.049 
08:25	39.2	39.2	39.2	94	37.6	0	1	270	0.00	30.049 
08:30	39.3	39.3	39.3	94	37.7	0	3	22	0.00	30.055 
08:35	39.5	39.5	39.5	94	37.9	1	4	135	0.00	30.055 
08:40	39.6	39.6	39.6	95	38.3	0	2	0	0.00	30.055 
08:45	39.6	39.6	39.6	95	38.3	1	4	90	0.00	30.057 
08:50	39.8	39.8	39.8	95	38.5	1	4	315	0.00	30.057 
08:55	39.9	39.9	39.9	95	38.6	1	5	22	0.00	30.057 
09:00	40.1	40.1	40.1	95	38.8	1	3	90	0.00	30.060 
09:05	40.2	40.2	40.2	95	38.9	1	3	22	0.00	30.060 
09:10	40.3	40.3	40.3	95	39.0	1	4	45	0.00	30.060 
09:15	40.6	40.6	40.6	95	39.3	1	3	45	0.00	30.067 
09:20	40.6	40.6	40.6	95	39.3	1	4	135	0.00	30.067 
09:25	40.8	40.8	40.8	94	39.2	1	3	0	0.00	30.067 
09:30	40.9	40.9	40.9	94	39.3	1	4	0	0.00	30.074 
09:35	40.9	40.9	40.9	94	39.3	2	4	68	0.00	30.074 
09:40	41.1	41.1	41.1	94	39.5	1	5	135	0.00	30.074 
09:45	41.2	41.2	41.2	94	39.6	2	6	45	0.00	30.079 
09:50	41.3	41.3	41.3	93	39.4	1	4	68	0.00	30.079 
09:55	41.5	41.5	41.5	93	39.6	1	2	135	0.00	30.079 
10:00	41.6	41.6	41.6	93	39.7	1	6	90	0.00	30.082 
10:05	41.6	41.6	41.6	93	39.7	1	4	45	0.00	30.082 
10:10	41.6	41.6	41.6	92	39.5	2	7	22	0.00	30.082 
10:15	41.6	41.6	41.6	92	39.5	1	4	135	0.00	30.084 
10:20	41.8	41.8	41.8	92	39.6	1	5	45	0.00	30.084 
10:25	41.9	41.9	41.9	92	39.7	1	4	68	0.00	30.084 
10:30	42.2	42.2	42.2	92	40.0	1	3	135	0.00	30.087 
10:35	42.2	42.2	42.2	92	40.0	1	7	68	0.00	30.087 
10:40	42.2	42.2	42.2	92	40.0	1	4	22	0.00	30.087 
10:45	42.2	42.2	42.2	92	40.0	1	3	292	0.00	30.098 
10:50	42.2	42.2	42.2	92	40.0	0	2	292	0.00	30.098 
10:55	42.3	42.3	42.3	92	40.1	1	4	45	0.00	30.098 
11:00	42.3	42.3	42.3	92	40.1	1	3	90	0.00	30.103 
11:05	42.5	42.5	42.5	91	40.1	0	2	90	0.00	30.103 
11:10	42.5	42.5	42.5	91	40.1	1	4	90	0.00	30.103 
11:15	42.6	42.6	42.6	91	40.2	0	5	90	0.00	30.111 
11:20	42.8	42.8	42.8	91	40.4	1	3	90	0.00	30.111 
11:25	42.9	42.9	42.9	91	40.5	1	7	22	0.00	30.111 
11:30	42.9	42.9	42.9	90	40.2	1	5	112	0.00	30.117 
11:35	43.1	43.1	43.1	90	40.4	0	3	0	0.00	30.117 
11:40	43.1	43.1	43.1	89	40.1	1	4	0	0.00	30.117 
11:45	43.2	43.2	43.2	89	40.2	1	4	112	0.00	30.127 
11:50	43.2	43.2	43.2	89	40.2	1	3	45	0.00	30.127 
11:55	43.3	43.3	43.3	88	40.0	1	5	45	0.00	30.127 
12:00	43.5	43.5	43.5	88	40.2	1	3	158	0.00	30.134 
12:05	43.5	43.5	43.5	88	40.2	1	4	135	0.00	30.134 
12:10	43.5	43.5	43.5	88	40.2	1	5	22	0.00	30.134 
12:15	43.5	43.5	43.5	88	40.2	1	4	45	0.00	30.141 
12:20	43.6	43.6	43.6	88	40.3	1	4	22	0.00	30.141 
12:25	43.8	43.8	43.8	88	40.5	0	2	22	0.00	30.141 
12:30	43.9	43.9	43.9	88	40.6	1	3	90	0.00	30.145 
12:35	43.9	43.9	43.9	88	40.6	1	2	315	0.00	30.145 
12:40	44.1	44.1	44.1	88	40.8	0	1	45	0.00	30.145 
12:45	44.2	44.2	44.2	87	40.6	1	5	45	0.00	30.147 
12:50	44.2	44.2	44.2	87	40.6	1	5	90	0.00	30.147 
12:55	44.2	44.2	44.2	87	40.6	1	4	45	0.00	30.147 
13:00	44.3	44.3	44.3	87	40.7	1	3	112	0.00	30.148 
13:05	44.3	44.3	44.3	86	40.4	1	5	90	0.00	30.148 
13:10	44.5	44.5	44.5	86	40.6	0	2	90	0.00	30.148 
13:15	44.8	44.8	44.8	86	40.9	0	3	90	0.00	30.149 
13:20	45.1	45.1	45.1	86	41.2	0	2	68	0.00	30.149 
13:25	45.4	45.4	45.4	85	41.2	1	3	68	0.00	30.149 
13:30	45.8	45.8	45.8	84	41.2	1	3	68	0.00	30.152 
13:35	46.0	46.0	46.0	83	41.1	2	4	90	0.00	30.152 
13:40	46.2	46.2	46.2	83	41.3	1	4	0	0.00	30.152 
13:45	46.4	46.4	46.4	82	41.2	1	4	45	0.00	30.157 
13:50	46.5	46.5	46.5	83	41.6	1	4	45	0.00	30.157 
13:55	46.5	46.5	46.5	82	41.3	0	2	45	0.00	30.157 
14:00	46.5	46.5	46.5	82	41.3	1	4	0	0.00	30.159 
14:05	46.7	46.7	46.7	82	41.5	1	5	90	0.00	30.159 
14:10	46.7	46.7	46.7	82	41.5	0	3	45	0.00	30.159 
14:15	47.0	47.0	47.0	83	42.1	1	4	68	0.00	30.160 
14:20	47.1	47.1	47.1	82	41.9	1	2	112	0.00	30.160 
14:25	47.3	47.3	47.3	82	42.1	0	2	45	0.00	30.160 
14:30	47.4	47.4	47.4	82	42.2	1	5	45	0.00	30.162 
14:35	47.6	47.6	47.6	82	42.4	2	6	112	0.00	30.162 
14:40	47.9	47.9	47.9	81	42.4	1	3	112	0.00	30.162 
14:45	48.2	48.2	48.2	81	42.6	1	4	45	0.00	30.167 
14:50	48.5	48.5	48.5	80	42.6	1	4	22	0.00	30.167 
14:55	48.5	48.5	48.5	79	42.3	2	5	45	0.00	30.167 
15:00	48.6	48.6	48.6	79	42.4	2	4	68	0.00	30.165 
15:05	49.1	49.1	49.1	79	42.9	1	4	112	0.00	30.165 
15:10	49.5	49.5	49.5	79	43.3	1	2	45	0.00	30.165 
15:15	49.5	49.5	49.5	77	42.6	1	6	68	0.00	30.164 
15:20	49.6	49.6	49.6	77	42.7	1	4	90	0.00	30.164 
15:25	49.8	49.8	49.8	77	42.9	1	4	68	0.00	30.164 
15:30	49.9	49.9	49.9	77	43.0	1	4	45	0.00	30.168 
15:35	50.1	50.1	50.1	77	43.2	1	5	90	0.00	30.168 
15:40	50.4	50.4	50.4	77	43.5	1	4	68	0.00	30.168 
15:45	50.7	50.7	50.7	77	43.8	1	5	45	0.00	30.166 
15:50	50.8	50.8	50.8	77	43.9	1	4	135	0.00	30.166 
15:55	50.7	50.7	50.7	76	43.4	2	5	112	0.00	30.166 
16:00	50.7	50.7	50.7	76	43.4	1	4	22	0.00	30.170 
16:05	50.5	50.5	50.5	75	42.9	2	5	68	0.00	30.170 
16:10	50.7	50.7	50.7	76	43.4	2	4	90	0.00	30.170 
16:15	50.8	50.8	50.8	75	43.2	2	5	22	0.00	30.173 
16:20	50.8	50.8	50.8	75	43.2	2	6	90	0.00	30.173 
16:25	50.5	50.5	50.5	76	43.2	2	9	22	0.00	30.173 
16:30	50.2	50.2	50.2	77	43.3	2	5	45	0.00	30.175 
16:35	50.1	50.1	50.1	76	42.8	3	9	135	0.00	30.175 
16:40	50.1	50.1	50.1	74	42.1	3	9	112	0.00	30.175 
16:45	50.1	50.1	50.1	72	41.4	3	10	22	0.00	30.176 
16:50	50.2	50.2	50.2	72	41.5	3	11	112	0.00	30.176 
16:55	50.4	50.4	50.4	71	41.4	4	9	112	0.00	30.176 
17:00	50.4	50.4	50.4	72	41.7	3	9	112	0.00	30.180 
17:05	50.5	50.5	50.5	72	41.8	1	6	112	0.00	30.180 
17:10	51.0	51.0	51.0	73	42.7	1	4	68	0.00	30.180 
17:15	51.3	51.3	51.3	71	42.2	2	6	90	0.00	30.180 
17:20	51.4	51.4	51.4	71	42.3	2	9	112	0.00	30.180 
17:25	51.3	51.3	51.3	70	41.9	2	7	68	0.00	30.180 
17:30	51.3	51.3	51.3	71	42.2	1	4	68	0.00	30.189 
17:35	51.3	51.3	51.3	71	42.2	1	4	112	0.00	30.189 
17:40	51.3	51.3	51.3	71	42.2	1	4	45	0.00	30.189 
17:45	51.3	51.3	51.3	71	42.2	1	4	45	0.00	30.187 
17:50	51.3	51.3	51.3	70	41.9	1	4	90	0.00	30.187 
17:55	51.4	51.4	51.4	70	41.9	1	4	90	0.00	30.187 
18:00	51.6	51.6	51.6	71	42.5	1	3	90	0.00	30.189 
18:05	51.6	51.6	51.6	70	42.1	1	3	90	0.00	30.189 
18:10	51.7	51.7	51.7	70	42.2	1	4	90	0.00	30.189 
18:15	51.7	51.7	51.7	71	42.6	1	4	90	0.00	30.190 
18:20	51.9	51.9	51.9	71	42.8	1	4	112	0.00	30.190 
18:25	52.0	52.0	52.0	69	42.1	2	5	112	0.00	30.190 
18:30	52.2	52.2	52.2	68	42.0	3	6	112	0.00	30.200 
18:35	52.2	52.2	52.2	66	41.2	2	5	90	0.00	30.200 
18:40	52.2	52.2	52.2	64	40.4	2	7	90	0.00	30.200 
18:45	52.3	52.3	52.3	64	40.5	1	4	112	0.00	30.204 
18:50	52.2	52.2	52.2	64	40.4	2	6	90	0.00	30.204 
18:55	52.2	52.2	52.2	65	40.8	1	2	90	0.00	30.204 
19:00	52.2	52.2	52.2	65	40.8	2	5	90	0.00	30.212 
19:05	52.0	52.0	52.0	65	40.6	1	3	112	0.00	30.212 
19:10	52.0	52.0	52.0	65	40.6	2	6	90	0.00	30.212 
19:15	51.9	51.9	51.9	66	40.9	1	3	112	0.00	30.216 
19:20	51.7	51.7	51.7	65	40.3	1	5	112	0.00	30.216 
19:25	51.7	51.7	51.7	66	40.7	1	4	112	0.00	30.216 
19:30	51.6	51.6	51.6	66	40.6	1	2	112	0.00	30.219 
19:35	51.6	51.6	51.6	66	40.6	1	3	90	0.00	30.219 
19:40	51.4	51.4	51.4	66	40.4	0	2	90	0.00	30.219 
19:45	51.4	51.4	51.4	67	40.8	0	1	90	0.00	30.220 
19:50	51.3	51.3	51.3	68	41.1	0	1	90	0.00	30.220 
19:55	51.1	51.1	51.1	68	40.9	0	1	90	0.00	30.220 
20:00	51.0	51.0	51.0	69	41.2	0	0	---	0.00	30.222 
20:05	50.5	50.5	50.5	70	41.1	0	0	---	0.00	30.222 
20:10	50.2	50.2	50.2	71	41.2	0	0	---	0.00	30.222 
20:15	49.9	49.9	49.9	71	40.9	0	0	---	0.00	30.227 
20:20	49.5	49.5	49.5	71	40.5	0	0	---	0.00	30.227 
20:25	49.1	49.1	49.1	72	40.5	0	0	---	0.00	30.227 
20:30	48.6	48.6	48.6	73	40.3	0	0	---	0.00	30.235 
20:35	48.3	48.3	48.3	75	40.7	0	0	---	0.00	30.235 
20:40	48.0	48.0	48.0	75	40.5	0	0	---	0.00	30.235 
20:45	47.7	47.7	47.7	76	40.5	0	0	---	0.00	30.236 
20:50	47.6	47.6	47.6	77	40.8	0	0	---	0.00	30.236 
20:55	47.4	47.4	47.4	78	40.9	0	0	---	0.00	30.236 
21:00	47.4	47.4	47.4	78	40.9	0	0	---	0.00	30.242 
21:05	47.3	47.3	47.3	79	41.1	0	0	---	0.00	30.242 
21:10	47.3	47.3	47.3	80	41.4	0	0	---	0.00	30.242 
21:15	47.1	47.1	47.1	80	41.3	0	0	---	0.00	30.248 
21:20	47.0	47.0	47.0	80	41.2	0	0	---	0.00	30.248 
21:25	46.8	46.8	46.8	81	41.3	0	0	---	0.00	30.248 
21:30	46.8	46.8	46.8	81	41.3	0	0	---	0.00	30.256 
21:35	46.7	46.7	46.7	82	41.5	0	0	---	0.00	30.256 
21:40	46.5	46.5	46.5	82	41.3	0	0	---	0.00	30.256 
21:45	46.5	46.5	46.5	83	41.6	0	0	---	0.00	30.268 
21:50	46.5	46.5	46.5	83	41.6	0	0	---	0.00	30.268 
21:55	46.4	46.4	46.4	84	41.8	0	0	---	0.00	30.268 
22:00	46.4	46.4	46.4	84	41.8	0	0	---	0.00	30.270 
22:05	46.4	46.4	46.4	84	41.8	0	0	---	0.00	30.270 
22:10	46.2	46.2	46.2	84	41.6	0	0	---	0.00	30.270 
22:15	46.2	46.2	46.2	84	41.6	0	0	---	0.00	30.282 
22:20	46.2	46.2	46.2	84	41.6	0	0	---	0.00	30.282 
22:25	46.1	46.1	46.1	85	41.8	0	0	---	0.00	30.282 
22:30	46.0	46.0	46.0	85	41.7	0	0	---	0.00	30.284 
22:35	45.8	45.8	45.8	85	41.6	0	0	---	0.00	30.284 
22:40	45.7	45.7	45.7	85	41.5	0	0	---	0.00	30.284 
22:45	45.5	45.5	45.5	86	41.6	0	0	---	0.00	30.286 
22:50	45.1	45.1	45.1	86	41.2	0	0	---	0.00	30.286 
22:55	44.8	44.8	44.8	86	40.9	0	0	---	0.00	30.286 
23:00	44.3	44.3	44.3	86	40.4	0	0	---	0.00	30.293 
23:05	44.1	44.1	44.1	87	40.5	0	0	---	0.00	30.293 
23:10	43.6	43.6	43.6	87	40.0	0	0	---	0.00	30.293 
23:15	43.2	43.2	43.2	87	39.6	0	0	---	0.00	30.290 
23:20	42.9	42.9	42.9	88	39.6	0	0	---	0.00	30.290 
23:25	42.5	42.5	42.5	88	39.2	0	0	---	0.00	30.290 
23:30	42.2	42.2	42.2	89	39.2	0	0	---	0.00	30.293 
23:35	41.8	41.8	41.8	89	38.8	0	0	---	0.00	30.293 
23:40	41.5	41.5	41.5	89	38.5	0	0	---	0.00	30.293 
23:45	41.2	41.2	41.2	90	38.5	0	0	---	0.00	30.301 
23:50	40.8	40.8	40.8	90	38.1	0	0	---	0.00	30.301 
23:55	40.6	40.6	40.6	90	37.9	0	0	---	0.00	30.301 

CoCoRaHS
IN-AL-39
A2 Web Hosting
Creative Commons License
GoDaddy
search engine by freefind advanced

loaded 2018-11-20 06:51:26 • last modified 2010-11-18 10:43:29
Privacy PolicyDisclaimer
• wx.awcolley.com is powered by PmWiki v.2002016 •
• all content (unless otherwise noted) © 2018 A W Colley